CST,Max TemperatureF,Mean TemperatureF,Min TemperatureF,Max Dew PointF,MeanDew PointF,Min DewpointF,Max Humidity, Mean Humidity, Min Humidity, Max Sea Level PressureIn, Mean Sea Level PressureIn, Min Sea Level PressureIn, Max VisibilityMiles, Mean VisibilityMiles, Min VisibilityMiles, Max Wind SpeedMPH, Mean Wind SpeedMPH, Max Gust SpeedMPH,PrecipitationIn, CloudCover, Events, WindDirDegrees
2013-1-1,21,13,5,16,11,5,100,89,77,30.37,30.26,30.19,10,5,0,13,6,18,0.00,3,Fog,254
2013-1-2,35,22,8,27,18,4,88,80,72,30.32,30.18,30.07,10,9,2,20,10,23,0.01,5,Snow,295
2013-1-3,26,18,10,22,17,10,96,82,68,30.47,30.38,30.24,10,10,8,15,7,17,T,3,Snow,276
2013-1-4,27,17,7,15,9,3,92,75,57,30.34,30.26,30.18,10,10,10,10,6,14,0.00,0,,221
2013-1-5,38,22,5,27,15,2,92,76,59,30.31,30.16,30.04,10,10,10,21,11,24,0.00,0,,277
2013-1-6,34,24,14,22,16,10,88,75,61,30.37,30.27,30.09,10,10,10,14,8,22,0.00,0,,231
2013-1-7,35,23,11,24,19,10,92,79,66,30.06,29.99,29.89,10,7,0,18,6,29,0.00,0,Fog,234
2013-1-8,36,22,8,29,16,6,95,86,73,30.24,29.96,29.81,10,6,0,9,4,,0.00,1,Fog,244
2013-1-9,41,29,17,28,23,15,88,74,59,30.46,30.36,30.26,10,10,9,14,6,17,0.00,0,,223
2013-1-10,36,33,30,34,31,25,100,91,70,30.31,29.92,29.61,10,4,0,12,6,,0.01,6,Fog-Rain,159
2013-1-11,43,32,20,38,32,12,100,84,68,29.88,29.51,29.36,10,5,0,36,12,43,0.00,4,Fog,255
2013-1-12,20,14,8,12,6,2,83,72,61,30.24,30.12,29.90,10,10,10,26,13,32,0.00,0,,318
2013-1-13,20,12,4,6,3,-2,86,69,51,30.41,30.31,30.24,10,10,10,15,9,20,0.00,0,,301
2013-1-14,23,13,3,12,6,0,87,71,54,30.52,30.42,30.31,10,10,10,12,5,14,0.00,2,,233
2013-1-15,29,20,10,18,12,7,84,74,63,30.37,30.25,30.08,10,10,10,15,6,17,0.00,0,,216
2013-1-16,47,33,19,31,25,10,85,67,49,30.32,30.11,30.00,10,10,10,16,9,20,0.00,2,,282
2013-1-17,44,34,24,31,26,21,92,76,60,30.51,30.40,30.28,10,10,10,12,6,14,0.00,0,,247
2013-1-18,44,37,30,31,27,24,78,68,58,30.25,30.06,29.95,10,10,10,15,8,20,0.00,0,,225
2013-1-19,52,40,28,31,27,24,85,63,41,30.34,30.10,29.92,10,10,10,20,11,24,0.00,0,,318
2013-1-20,28,23,17,21,14,12,85,73,60,30.47,30.38,30.30,10,10,10,16,6,18,0.00,2,,42
2013-1-21,23,18,13,17,10,7,88,80,71,30.47,30.39,30.33,10,10,8,15,7,17,0.00,8,,71
2013-1-22,25,19,12,13,9,5,76,66,55,30.37,30.30,30.24,10,10,10,13,6,17,0.00,1,,163
2013-1-23,34,24,13,21,15,5,88,72,56,30.50,30.31,30.18,10,10,10,20,10,25,0.00,0,,14
2013-1-24,20,13,5,9,4,1,91,68,45,30.52,30.36,30.19,10,10,5,15,8,17,T,3,,111
2013-1-25,48,32,16,28,21,10,84,65,45,30.27,30.21,30.19,10,10,10,9,4,12,0.00,0,,247
2013-1-26,53,41,28,36,26,22,78,57,35,30.18,30.07,29.92,10,10,10,18,9,30,0.00,0,,175
2013-1-27,42,37,32,40,37,32,100,90,79,29.90,29.78,29.67,9,3,0,15,6,18,0.08,6,Fog-Rain,201
2013-1-28,38,33,28,37,33,28,100,96,92,29.83,29.72,29.58,4,1,0,20,5,24,0.00,5,Fog,24
2013-1-29,35,32,29,34,29,25,100,91,82,29.78,29.70,29.63,10,6,1,29,16,36,0.20,8,Snow,352
2013-1-30,29,24,18,27,17,10,92,77,62,29.97,29.86,29.71,10,5,1,36,16,41,T,7,Snow,338
2013-1-31,22,16,9,14,4,-2,84,68,51,30.47,30.27,29.97,10,10,10,30,13,36,0.00,4,,350